sensor_id;sensor_type;location;lat;lon;timestamp;temperature;humidity
21849;DHT22;11089;49.852;19.700;2023-05-06T00:02:25;8.80;1.00
21849;DHT22;11089;49.852;19.700;2023-05-06T00:05:28;8.80;1.00
21849;DHT22;11089;49.852;19.700;2023-05-06T00:08:29;8.80;1.00
21849;DHT22;11089;49.852;19.700;2023-05-06T00:11:30;8.70;99.90
21849;DHT22;11089;49.852;19.700;2023-05-06T00:14:31;8.50;29.00
21849;DHT22;11089;49.852;19.700;2023-05-06T00:17:32;8.50;41.60
21849;DHT22;11089;49.852;19.700;2023-05-06T00:20:33;8.70;99.90
21849;DHT22;11089;49.852;19.700;2023-05-06T00:23:35;8.80;1.00
21849;DHT22;11089;49.852;19.700;2023-05-06T00:26:36;8.80;99.90
21849;DHT22;11089;49.852;19.700;2023-05-06T00:29:37;8.90;1.00
21849;DHT22;11089;49.852;19.700;2023-05-06T00:32:38;8.70;99.90
21849;DHT22;11089;49.852;19.700;2023-05-06T00:35:38;8.50;1.00
21849;DHT22;11089;49.852;19.700;2023-05-06T00:38:40;8.60;99.90
21849;DHT22;11089;49.852;19.700;2023-05-06T00:41:41;8.60;99.90
21849;DHT22;11089;49.852;19.700;2023-05-06T00:44:41;8.50;1.00
21849;DHT22;11089;49.852;19.700;2023-05-06T00:47:42;8.50;1.00
21849;DHT22;11089;49.852;19.700;2023-05-06T00:50:44;8.50;1.00
21849;DHT22;11089;49.852;19.700;2023-05-06T00:53:45;8.50;1.00
21849;DHT22;11089;49.852;19.700;2023-05-06T00:56:46;8.40;99.90
21849;DHT22;11089;49.852;19.700;2023-05-06T00:59:47;8.30;1.00
21849;DHT22;11089;49.852;19.700;2023-05-06T01:02:48;8.30;99.90
21849;DHT22;11089;49.852;19.700;2023-05-06T01:06:15;8.40;52.40
21849;DHT22;11089;49.852;19.700;2023-05-06T01:09:21;8.40;99.90
21849;DHT22;11089;49.852;19.700;2023-05-06T01:15:45;8.40;99.90
21849;DHT22;11089;49.852;19.700;2023-05-06T01:18:48;8.40;99.90
21849;DHT22;11089;49.852;19.700;2023-05-06T01:21:51;8.40;99.90
21849;DHT22;11089;49.852;19.700;2023-05-06T01:24:53;8.30;1.00
21849;DHT22;11089;49.852;19.700;2023-05-06T01:27:54;8.20;1.00
21849;DHT22;11089;49.852;19.700;2023-05-06T01:31:06;8.00;99.90
21849;DHT22;11089;49.852;19.700;2023-05-06T01:34:20;7.90;1.00
21849;DHT22;11089;49.852;19.700;2023-05-06T01:40:32;7.70;1.00
21849;DHT22;11089;49.852;19.700;2023-05-06T01:43:39;7.80;99.90
21849;DHT22;11089;49.852;19.700;2023-05-06T01:46:43;7.70;99.90
21849;DHT22;11089;49.852;19.700;2023-05-06T01:49:46;7.70;1.00
21849;DHT22;11089;49.852;19.700;2023-05-06T01:52:58;7.70;30.20
21849;DHT22;11089;49.852;19.700;2023-05-06T01:55:59;7.80;1.00
21849;DHT22;11089;49.852;19.700;2023-05-06T01:59:00;7.70;1.00
21849;DHT22;11089;49.852;19.700;2023-05-06T02:02:01;7.70;1.00
21849;DHT22;11089;49.852;19.700;2023-05-06T02:05:02;7.50;1.00
21849;DHT22;11089;49.852;19.700;2023-05-06T02:08:03;7.50;1.00
21849;DHT22;11089;49.852;19.700;2023-05-06T02:11:04;7.50;1.00
21849;DHT22;11089;49.852;19.700;2023-05-06T02:14:05;7.40;1.00
21849;DHT22;11089;49.852;19.700;2023-05-06T02:17:06;7.40;99.90
21849;DHT22;11089;49.852;19.700;2023-05-06T02:20:07;7.50;28.30
21849;DHT22;11089;49.852;19.700;2023-05-06T02:23:11;7.40;99.90
21849;DHT22;11089;49.852;19.700;2023-05-06T02:26:12;7.40;99.90
21849;DHT22;11089;49.852;19.700;2023-05-06T02:29:13;7.40;99.90
21849;DHT22;11089;49.852;19.700;2023-05-06T02:32:14;7.40;1.00
21849;DHT22;11089;49.852;19.700;2023-05-06T02:35:15;7.40;1.00
21849;DHT22;11089;49.852;19.700;2023-05-06T02:38:17;7.30;99.90
21849;DHT22;11089;49.852;19.700;2023-05-06T02:41:19;7.30;99.90
21849;DHT22;11089;49.852;19.700;2023-05-06T02:44:20;7.30;99.90
21849;DHT22;11089;49.852;19.700;2023-05-06T02:47:21;7.30;99.90
21849;DHT22;11089;49.852;19.700;2023-05-06T02:50:22;7.30;1.00
21849;DHT22;11089;49.852;19.700;2023-05-06T02:53:23;7.30;1.00
21849;DHT22;11089;49.852;19.700;2023-05-06T02:56:23;7.20;1.00
21849;DHT22;11089;49.852;19.700;2023-05-06T02:59:25;7.20;1.00
21849;DHT22;11089;49.852;19.700;2023-05-06T03:02:26;7.20;1.00
21849;DHT22;11089;49.852;19.700;2023-05-06T03:05:27;7.20;1.00
21849;DHT22;11089;49.852;19.700;2023-05-06T03:08:28;7.30;1.00
21849;DHT22;11089;49.852;19.700;2023-05-06T03:11:29;7.30;99.90
21849;DHT22;11089;49.852;19.700;2023-05-06T03:14:31;7.20;99.90
21849;DHT22;11089;49.852;19.700;2023-05-06T03:17:32;7.20;1.00
21849;DHT22;11089;49.852;19.700;2023-05-06T03:20:33;7.10;99.90
21849;DHT22;11089;49.852;19.700;2023-05-06T03:23:34;7.40;39.00
21849;DHT22;11089;49.852;19.700;2023-05-06T03:26:35;7.30;1.00
21849;DHT22;11089;49.852;19.700;2023-05-06T03:29:35;7.40;99.90
21849;DHT22;11089;49.852;19.700;2023-05-06T03:32:37;7.30;99.90
21849;DHT22;11089;49.852;19.700;2023-05-06T03:35:38;7.20;99.90
21849;DHT22;11089;49.852;19.700;2023-05-06T03:38:40;7.20;99.90
21849;DHT22;11089;49.852;19.700;2023-05-06T03:41:41;7.10;1.00
21849;DHT22;11089;49.852;19.700;2023-05-06T03:44:42;7.00;99.90
21849;DHT22;11089;49.852;19.700;2023-05-06T03:47:43;7.10;1.00
21849;DHT22;11089;49.852;19.700;2023-05-06T03:50:44;7.20;1.00
21849;DHT22;11089;49.852;19.700;2023-05-06T03:53:45;7.40;1.00
21849;DHT22;11089;49.852;19.700;2023-05-06T03:56:46;7.50;82.60
21849;DHT22;11089;49.852;19.700;2023-05-06T03:59:47;7.40;1.00
21849;DHT22;11089;49.852;19.700;2023-05-06T04:02:47;7.50;99.90
21849;DHT22;11089;49.852;19.700;2023-05-06T04:05:48;7.50;1.00
21849;DHT22;11089;49.852;19.700;2023-05-06T04:08:50;7.60;1.00
21849;DHT22;11089;49.852;19.700;2023-05-06T04:11:51;7.80;1.00
21849;DHT22;11089;49.852;19.700;2023-05-06T04:14:52;7.80;1.00
21849;DHT22;11089;49.852;19.700;2023-05-06T04:17:53;7.60;1.00
21849;DHT22;11089;49.852;19.700;2023-05-06T04:20:54;7.80;1.00
21849;DHT22;11089;49.852;19.700;2023-05-06T04:23:55;8.00;1.00
21849;DHT22;11089;49.852;19.700;2023-05-06T04:26:56;7.90;99.90
21849;DHT22;11089;49.852;19.700;2023-05-06T04:29:57;7.80;1.00
21849;DHT22;11089;49.852;19.700;2023-05-06T04:32:58;7.70;1.00
21849;DHT22;11089;49.852;19.700;2023-05-06T04:36:00;7.80;99.90
21849;DHT22;11089;49.852;19.700;2023-05-06T04:39:01;7.60;99.90
21849;DHT22;11089;49.852;19.700;2023-05-06T04:42:02;7.70;1.00
21849;DHT22;11089;49.852;19.700;2023-05-06T04:45:04;7.60;1.00
21849;DHT22;11089;49.852;19.700;2023-05-06T04:48:05;7.70;1.00
21849;DHT22;11089;49.852;19.700;2023-05-06T04:51:07;7.80;1.00
21849;DHT22;11089;49.852;19.700;2023-05-06T04:54:08;7.70;1.00
21849;DHT22;11089;49.852;19.700;2023-05-06T04:57:09;7.90;99.90
21849;DHT22;11089;49.852;19.700;2023-05-06T05:00:11;7.90;1.00
21849;DHT22;11089;49.852;19.700;2023-05-06T05:03:12;8.00;1.00
21849;DHT22;11089;49.852;19.700;2023-05-06T05:06:13;8.10;99.90
21849;DHT22;11089;49.852;19.700;2023-05-06T05:09:14;8.10;1.00
21849;DHT22;11089;49.852;19.700;2023-05-06T05:12:15;8.20;1.00
21849;DHT22;11089;49.852;19.700;2023-05-06T05:15:16;8.30;1.00
21849;DHT22;11089;49.852;19.700;2023-05-06T05:18:17;8.50;99.90
21849;DHT22;11089;49.852;19.700;2023-05-06T05:21:18;8.60;1.00
21849;DHT22;11089;49.852;19.700;2023-05-06T05:24:20;8.70;1.00
21849;DHT22;11089;49.852;19.700;2023-05-06T05:27:21;8.70;99.90
21849;DHT22;11089;49.852;19.700;2023-05-06T05:30:22;8.70;1.00
21849;DHT22;11089;49.852;19.700;2023-05-06T05:33:23;8.90;1.00
21849;DHT22;11089;49.852;19.700;2023-05-06T05:36:25;9.00;99.90
21849;DHT22;11089;49.852;19.700;2023-05-06T05:39:27;9.10;66.70
21849;DHT22;11089;49.852;19.700;2023-05-06T05:42:28;9.30;1.00
21849;DHT22;11089;49.852;19.700;2023-05-06T05:45:33;9.30;1.00
21849;DHT22;11089;49.852;19.700;2023-05-06T05:48:34;9.40;99.90
21849;DHT22;11089;49.852;19.700;2023-05-06T05:51:35;9.50;1.00
21849;DHT22;11089;49.852;19.700;2023-05-06T05:54:36;9.60;99.90
21849;DHT22;11089;49.852;19.700;2023-05-06T05:57:37;9.80;1.00
21849;DHT22;11089;49.852;19.700;2023-05-06T06:00:37;9.90;99.90
21849;DHT22;11089;49.852;19.700;2023-05-06T06:03:38;9.90;1.00
21849;DHT22;11089;49.852;19.700;2023-05-06T06:06:40;10.10;1.00
21849;DHT22;11089;49.852;19.700;2023-05-06T06:09:41;10.10;1.00
21849;DHT22;11089;49.852;19.700;2023-05-06T06:12:42;10.30;99.90
21849;DHT22;11089;49.852;19.700;2023-05-06T06:15:44;10.40;99.90
21849;DHT22;11089;49.852;19.700;2023-05-06T06:18:46;10.60;1.00
21849;DHT22;11089;49.852;19.700;2023-05-06T06:21:47;10.70;99.90
21849;DHT22;11089;49.852;19.700;2023-05-06T06:24:48;10.80;1.00
21849;DHT22;11089;49.852;19.700;2023-05-06T06:27:49;10.90;99.90
21849;DHT22;11089;49.852;19.700;2023-05-06T06:30:50;11.00;1.00
21849;DHT22;11089;49.852;19.700;2023-05-06T06:33:50;11.20;99.90
21849;DHT22;11089;49.852;19.700;2023-05-06T06:36:51;11.30;1.00
21849;DHT22;11089;49.852;19.700;2023-05-06T06:39:52;11.50;1.00
21849;DHT22;11089;49.852;19.700;2023-05-06T06:42:53;11.60;99.90
21849;DHT22;11089;49.852;19.700;2023-05-06T06:45:54;11.70;1.00
21849;DHT22;11089;49.852;19.700;2023-05-06T06:48:55;11.90;52.20
21849;DHT22;11089;49.852;19.700;2023-05-06T06:51:56;12.10;65.10
21849;DHT22;11089;49.852;19.700;2023-05-06T06:54:57;12.10;1.00
21849;DHT22;11089;49.852;19.700;2023-05-06T06:57:58;12.20;1.00
21849;DHT22;11089;49.852;19.700;2023-05-06T07:00:59;12.30;1.00
21849;DHT22;11089;49.852;19.700;2023-05-06T07:04:00;12.40;99.90
21849;DHT22;11089;49.852;19.700;2023-05-06T07:07:01;12.60;1.00
21849;DHT22;11089;49.852;19.700;2023-05-06T07:10:02;12.80;1.00
21849;DHT22;11089;49.852;19.700;2023-05-06T07:13:03;12.90;99.90
21849;DHT22;11089;49.852;19.700;2023-05-06T07:16:05;13.00;99.90
21849;DHT22;11089;49.852;19.700;2023-05-06T07:19:06;13.20;99.90
21849;DHT22;11089;49.852;19.700;2023-05-06T07:22:07;13.40;99.90
21849;DHT22;11089;49.852;19.700;2023-05-06T07:25:08;13.50;99.90
21849;DHT22;11089;49.852;19.700;2023-05-06T07:28:09;13.70;99.90
21849;DHT22;11089;49.852;19.700;2023-05-06T07:31:10;13.80;99.90
21849;DHT22;11089;49.852;19.700;2023-05-06T07:34:11;13.90;10.90
21849;DHT22;11089;49.852;19.700;2023-05-06T07:37:12;13.90;1.00
21849;DHT22;11089;49.852;19.700;2023-05-06T07:40:13;14.00;1.00
21849;DHT22;11089;49.852;19.700;2023-05-06T07:43:14;14.10;1.00
21849;DHT22;11089;49.852;19.700;2023-05-06T07:46:15;14.10;1.00
21849;DHT22;11089;49.852;19.700;2023-05-06T07:49:16;14.10;1.00
21849;DHT22;11089;49.852;19.700;2023-05-06T07:52:17;14.20;1.00
21849;DHT22;11089;49.852;19.700;2023-05-06T07:55:18;14.20;1.00
21849;DHT22;11089;49.852;19.700;2023-05-06T07:58:19;14.30;1.00
21849;DHT22;11089;49.852;19.700;2023-05-06T08:01:20;14.40;1.00
21849;DHT22;11089;49.852;19.700;2023-05-06T08:04:21;14.40;1.00
21849;DHT22;11089;49.852;19.700;2023-05-06T08:07:22;14.50;1.00
21849;DHT22;11089;49.852;19.700;2023-05-06T08:10:23;14.70;1.00
21849;DHT22;11089;49.852;19.700;2023-05-06T08:13:24;14.90;1.00
21849;DHT22;11089;49.852;19.700;2023-05-06T08:16:25;15.00;1.00
21849;DHT22;11089;49.852;19.700;2023-05-06T08:19:26;15.20;1.00
21849;DHT22;11089;49.852;19.700;2023-05-06T08:22:27;15.40;1.00
21849;DHT22;11089;49.852;19.700;2023-05-06T08:25:28;15.60;1.00
21849;DHT22;11089;49.852;19.700;2023-05-06T08:28:29;15.80;99.90
21849;DHT22;11089;49.852;19.700;2023-05-06T08:31:31;16.10;1.00
21849;DHT22;11089;49.852;19.700;2023-05-06T08:34:32;16.10;99.90
21849;DHT22;11089;49.852;19.700;2023-05-06T08:37:34;16.00;99.90
21849;DHT22;11089;49.852;19.700;2023-05-06T08:40:41;16.30;99.90
21849;DHT22;11089;49.852;19.700;2023-05-06T08:43:45;16.60;99.90
21849;DHT22;11089;49.852;19.700;2023-05-06T08:46:47;16.90;99.90
21849;DHT22;11089;49.852;19.700;2023-05-06T08:49:48;17.50;99.90
21849;DHT22;11089;49.852;19.700;2023-05-06T08:52:49;17.80;25.60
21849;DHT22;11089;49.852;19.700;2023-05-06T08:55:50;18.10;22.90
21849;DHT22;11089;49.852;19.700;2023-05-06T08:58:54;18.50;1.00
21849;DHT22;11089;49.852;19.700;2023-05-06T09:01:55;18.30;1.00
21849;DHT22;11089;49.852;19.700;2023-05-06T09:04:56;18.60;1.00
21849;DHT22;11089;49.852;19.700;2023-05-06T09:07:59;19.00;1.00
21849;DHT22;11089;49.852;19.700;2023-05-06T09:11:00;19.30;1.00
21849;DHT22;11089;49.852;19.700;2023-05-06T09:14:09;19.30;1.00
21849;DHT22;11089;49.852;19.700;2023-05-06T09:17:20;19.20;1.00
21849;DHT22;11089;49.852;19.700;2023-05-06T09:20:26;19.00;1.00
21849;DHT22;11089;49.852;19.700;2023-05-06T09:23:27;19.20;1.00
21849;DHT22;11089;49.852;19.700;2023-05-06T09:26:29;19.40;1.00
21849;DHT22;11089;49.852;19.700;2023-05-06T09:29:30;19.50;1.00
21849;DHT22;11089;49.852;19.700;2023-05-06T09:32:32;19.60;1.00
21849;DHT22;11089;49.852;19.700;2023-05-06T09:35:41;19.60;1.00
21849;DHT22;11089;49.852;19.700;2023-05-06T09:38:42;19.70;1.00
21849;DHT22;11089;49.852;19.700;2023-05-06T09:41:43;19.60;1.00
21849;DHT22;11089;49.852;19.700;2023-05-06T09:44:45;19.60;1.00
21849;DHT22;11089;49.852;19.700;2023-05-06T09:47:46;19.70;1.00
21849;DHT22;11089;49.852;19.700;2023-05-06T09:50:49;19.70;1.00
21849;DHT22;11089;49.852;19.700;2023-05-06T09:53:50;19.50;1.00
21849;DHT22;11089;49.852;19.700;2023-05-06T09:56:53;19.30;1.00
21849;DHT22;11089;49.852;19.700;2023-05-06T09:59:55;19.10;1.00
21849;DHT22;11089;49.852;19.700;2023-05-06T10:02:57;19.00;1.00
21849;DHT22;11089;49.852;19.700;2023-05-06T10:06:03;18.90;1.00
21849;DHT22;11089;49.852;19.700;2023-05-06T10:09:08;18.90;1.00
21849;DHT22;11089;49.852;19.700;2023-05-06T10:12:10;18.70;1.00
21849;DHT22;11089;49.852;19.700;2023-05-06T10:15:10;18.50;1.00
21849;DHT22;11089;49.852;19.700;2023-05-06T10:18:16;18.50;1.00
21849;DHT22;11089;49.852;19.700;2023-05-06T10:21:21;18.30;99.90
21849;DHT22;11089;49.852;19.700;2023-05-06T10:24:35;18.30;99.90
21849;DHT22;11089;49.852;19.700;2023-05-06T10:27:39;18.20;99.90
21849;DHT22;11089;49.852;19.700;2023-05-06T10:30:44;18.10;99.90
21849;DHT22;11089;49.852;19.700;2023-05-06T10:33:47;17.90;1.00
21849;DHT22;11089;49.852;19.700;2023-05-06T10:36:52;17.90;1.00
21849;DHT22;11089;49.852;19.700;2023-05-06T10:39:54;17.70;1.00
21849;DHT22;11089;49.852;19.700;2023-05-06T10:43:20;17.40;1.00
21849;DHT22;11089;49.852;19.700;2023-05-06T10:46:22;17.20;99.90
21849;DHT22;11089;49.852;19.700;2023-05-06T10:49:24;16.80;1.00
21849;DHT22;11089;49.852;19.700;2023-05-06T10:52:25;16.70;1.00
21849;DHT22;11089;49.852;19.700;2023-05-06T10:55:43;16.60;1.00
21849;DHT22;11089;49.852;19.700;2023-05-06T10:58:48;16.40;1.00
21849;DHT22;11089;49.852;19.700;2023-05-06T11:05:04;16.00;99.90
21849;DHT22;11089;49.852;19.700;2023-05-06T11:08:07;15.70;1.00
21849;DHT22;11089;49.852;19.700;2023-05-06T11:14:38;15.30;99.90
21849;DHT22;11089;49.852;19.700;2023-05-06T11:17:39;15.30;1.00
21849;DHT22;11089;49.852;19.700;2023-05-06T11:20:40;15.20;1.00
21849;DHT22;11089;49.852;19.700;2023-05-06T11:26:42;15.10;99.90
21849;DHT22;11089;49.852;19.700;2023-05-06T11:29:43;15.10;1.00
21849;DHT22;11089;49.852;19.700;2023-05-06T11:32:45;15.20;1.00
21849;DHT22;11089;49.852;19.700;2023-05-06T11:35:47;15.00;1.00
21849;DHT22;11089;49.852;19.700;2023-05-06T11:38:49;15.20;99.90
21849;DHT22;11089;49.852;19.700;2023-05-06T11:41:52;15.10;1.00
21849;DHT22;11089;49.852;19.700;2023-05-06T11:44:54;15.00;1.00
21849;DHT22;11089;49.852;19.700;2023-05-06T11:47:55;15.00;1.00
21849;DHT22;11089;49.852;19.700;2023-05-06T11:50:56;14.70;99.90
21849;DHT22;11089;49.852;19.700;2023-05-06T11:54:07;14.90;1.00
21849;DHT22;11089;49.852;19.700;2023-05-06T11:57:08;14.90;99.90
21849;DHT22;11089;49.852;19.700;2023-05-06T12:00:10;14.70;1.00
21849;DHT22;11089;49.852;19.700;2023-05-06T12:03:13;14.50;1.00
21849;DHT22;11089;49.852;19.700;2023-05-06T12:06:14;14.50;1.00
21849;DHT22;11089;49.852;19.700;2023-05-06T12:09:15;14.50;1.00
21849;DHT22;11089;49.852;19.700;2023-05-06T12:12:20;14.70;99.90
21849;DHT22;11089;49.852;19.700;2023-05-06T12:15:22;14.70;1.00
21849;DHT22;11089;49.852;19.700;2023-05-06T12:18:24;14.70;1.00
21849;DHT22;11089;49.852;19.700;2023-05-06T12:21:25;14.70;1.00
21849;DHT22;11089;49.852;19.700;2023-05-06T12:24:26;14.50;1.00
21849;DHT22;11089;49.852;19.700;2023-05-06T12:27:33;14.60;1.00
21849;DHT22;11089;49.852;19.700;2023-05-06T12:30:34;14.50;1.00
21849;DHT22;11089;49.852;19.700;2023-05-06T12:33:45;14.40;99.90
21849;DHT22;11089;49.852;19.700;2023-05-06T12:36:48;14.60;1.00
21849;DHT22;11089;49.852;19.700;2023-05-06T12:39:49;14.50;99.90
21849;DHT22;11089;49.852;19.700;2023-05-06T12:42:54;14.20;99.90
21849;DHT22;11089;49.852;19.700;2023-05-06T12:46:05;14.20;99.90
21849;DHT22;11089;49.852;19.700;2023-05-06T12:49:06;14.20;1.00
21849;DHT22;11089;49.852;19.700;2023-05-06T12:52:08;14.20;1.00
21849;DHT22;11089;49.852;19.700;2023-05-06T12:55:10;14.10;99.90
21849;DHT22;11089;49.852;19.700;2023-05-06T12:58:20;14.10;99.90
21849;DHT22;11089;49.852;19.700;2023-05-06T13:01:20;14.20;1.00
21849;DHT22;11089;49.852;19.700;2023-05-06T13:04:21;14.20;1.00
21849;DHT22;11089;49.852;19.700;2023-05-06T13:07:22;14.20;99.90
21849;DHT22;11089;49.852;19.700;2023-05-06T13:10:23;14.10;99.90
21849;DHT22;11089;49.852;19.700;2023-05-06T13:13:24;14.20;1.00
21849;DHT22;11089;49.852;19.700;2023-05-06T13:16:30;14.20;1.00
21849;DHT22;11089;49.852;19.700;2023-05-06T13:19:32;14.40;99.90
21849;DHT22;11089;49.852;19.700;2023-05-06T13:22:33;14.40;1.00
21849;DHT22;11089;49.852;19.700;2023-05-06T13:25:34;14.40;99.90
21849;DHT22;11089;49.852;19.700;2023-05-06T13:28:35;14.20;1.00
21849;DHT22;11089;49.852;19.700;2023-05-06T13:31:36;14.40;99.90
21849;DHT22;11089;49.852;19.700;2023-05-06T13:34:37;14.30;1.00
21849;DHT22;11089;49.852;19.700;2023-05-06T13:37:38;14.40;1.00
21849;DHT22;11089;49.852;19.700;2023-05-06T13:40:39;14.50;1.00
21849;DHT22;11089;49.852;19.700;2023-05-06T13:43:40;14.60;1.00
21849;DHT22;11089;49.852;19.700;2023-05-06T13:46:41;14.40;91.20
21849;DHT22;11089;49.852;19.700;2023-05-06T13:49:42;14.40;99.90
21849;DHT22;11089;49.852;19.700;2023-05-06T13:52:43;14.40;99.90
21849;DHT22;11089;49.852;19.700;2023-05-06T13:55:44;14.40;99.90
21849;DHT22;11089;49.852;19.700;2023-05-06T13:58:46;14.40;99.90
21849;DHT22;11089;49.852;19.700;2023-05-06T14:01:47;14.40;99.90
21849;DHT22;11089;49.852;19.700;2023-05-06T14:04:49;14.40;99.90
21849;DHT22;11089;49.852;19.700;2023-05-06T14:07:51;14.30;99.90
21849;DHT22;11089;49.852;19.700;2023-05-06T14:10:52;14.40;99.90
21849;DHT22;11089;49.852;19.700;2023-05-06T14:13:54;14.50;99.90
21849;DHT22;11089;49.852;19.700;2023-05-06T14:16:56;14.60;99.90
21849;DHT22;11089;49.852;19.700;2023-05-06T14:19:57;14.70;99.90
21849;DHT22;11089;49.852;19.700;2023-05-06T14:22:58;14.70;99.90
21849;DHT22;11089;49.852;19.700;2023-05-06T14:25:59;14.70;99.90
21849;DHT22;11089;49.852;19.700;2023-05-06T14:29:00;14.70;99.90
21849;DHT22;11089;49.852;19.700;2023-05-06T14:32:01;14.70;99.90
21849;DHT22;11089;49.852;19.700;2023-05-06T14:35:03;14.70;99.90
21849;DHT22;11089;49.852;19.700;2023-05-06T14:38:04;14.90;99.90
21849;DHT22;11089;49.852;19.700;2023-05-06T14:41:05;15.10;99.90
21849;DHT22;11089;49.852;19.700;2023-05-06T14:44:06;15.30;1.00
21849;DHT22;11089;49.852;19.700;2023-05-06T14:47:07;15.30;1.00
21849;DHT22;11089;49.852;19.700;2023-05-06T14:50:08;15.30;1.00
21849;DHT22;11089;49.852;19.700;2023-05-06T14:53:10;15.40;1.00
21849;DHT22;11089;49.852;19.700;2023-05-06T14:56:11;15.40;99.90
21849;DHT22;11089;49.852;19.700;2023-05-06T14:59:12;15.60;99.90
21849;DHT22;11089;49.852;19.700;2023-05-06T15:02:13;15.80;1.00
21849;DHT22;11089;49.852;19.700;2023-05-06T15:05:14;15.90;1.00
21849;DHT22;11089;49.852;19.700;2023-05-06T15:08:15;16.00;1.00
21849;DHT22;11089;49.852;19.700;2023-05-06T15:11:16;16.00;37.80
21849;DHT22;11089;49.852;19.700;2023-05-06T15:14:17;16.00;99.90
21849;DHT22;11089;49.852;19.700;2023-05-06T15:17:18;16.10;99.90
21849;DHT22;11089;49.852;19.700;2023-05-06T15:20:19;16.20;1.00
21849;DHT22;11089;49.852;19.700;2023-05-06T15:23:20;16.10;1.00
21849;DHT22;11089;49.852;19.700;2023-05-06T15:26:22;16.10;1.00
21849;DHT22;11089;49.852;19.700;2023-05-06T15:29:23;16.00;1.00
21849;DHT22;11089;49.852;19.700;2023-05-06T15:32:24;15.90;1.00
21849;DHT22;11089;49.852;19.700;2023-05-06T15:35:25;16.00;1.00
21849;DHT22;11089;49.852;19.700;2023-05-06T15:38:26;15.90;1.00
21849;DHT22;11089;49.852;19.700;2023-05-06T15:41:32;16.00;1.00
21849;DHT22;11089;49.852;19.700;2023-05-06T15:44:33;15.90;99.90
21849;DHT22;11089;49.852;19.700;2023-05-06T15:47:34;15.90;1.00
21849;DHT22;11089;49.852;19.700;2023-05-06T15:50:36;15.90;1.00
21849;DHT22;11089;49.852;19.700;2023-05-06T15:53:40;15.90;1.00
21849;DHT22;11089;49.852;19.700;2023-05-06T15:56:41;15.70;1.00
21849;DHT22;11089;49.852;19.700;2023-05-06T15:59:42;15.70;1.00
21849;DHT22;11089;49.852;19.700;2023-05-06T16:02:43;15.60;1.00
21849;DHT22;11089;49.852;19.700;2023-05-06T16:05:44;15.60;1.00
21849;DHT22;11089;49.852;19.700;2023-05-06T16:08:45;15.60;1.00
21849;DHT22;11089;49.852;19.700;2023-05-06T16:11:46;15.50;1.00
21849;DHT22;11089;49.852;19.700;2023-05-06T16:14:47;15.50;1.00
21849;DHT22;11089;49.852;19.700;2023-05-06T16:17:48;15.30;1.00
21849;DHT22;11089;49.852;19.700;2023-05-06T16:20:49;15.30;1.00
21849;DHT22;11089;49.852;19.700;2023-05-06T16:23:50;15.20;99.90
21849;DHT22;11089;49.852;19.700;2023-05-06T16:26:51;15.10;99.90
21849;DHT22;11089;49.852;19.700;2023-05-06T16:29:52;15.10;1.00
21849;DHT22;11089;49.852;19.700;2023-05-06T16:32:53;15.10;1.00
21849;DHT22;11089;49.852;19.700;2023-05-06T16:35:54;15.10;1.00
21849;DHT22;11089;49.852;19.700;2023-05-06T16:38:55;15.00;99.90
21849;DHT22;11089;49.852;19.700;2023-05-06T16:41:56;14.90;1.00
21849;DHT22;11089;49.852;19.700;2023-05-06T16:44:57;14.90;1.00
21849;DHT22;11089;49.852;19.700;2023-05-06T16:47:58;14.90;1.00
21849;DHT22;11089;49.852;19.700;2023-05-06T16:50:59;14.80;99.90
21849;DHT22;11089;49.852;19.700;2023-05-06T16:54:00;14.90;99.90
21849;DHT22;11089;49.852;19.700;2023-05-06T16:57:01;14.80;99.90
21849;DHT22;11089;49.852;19.700;2023-05-06T17:00:03;14.80;1.00
21849;DHT22;11089;49.852;19.700;2023-05-06T17:03:07;14.70;1.00
21849;DHT22;11089;49.852;19.700;2023-05-06T17:06:08;14.70;1.00
21849;DHT22;11089;49.852;19.700;2023-05-06T17:09:09;14.60;1.00
21849;DHT22;11089;49.852;19.700;2023-05-06T17:12:10;14.60;1.00
21849;DHT22;11089;49.852;19.700;2023-05-06T17:15:11;14.50;1.00
21849;DHT22;11089;49.852;19.700;2023-05-06T17:18:12;14.50;82.90
21849;DHT22;11089;49.852;19.700;2023-05-06T17:21:14;14.40;99.90
21849;DHT22;11089;49.852;19.700;2023-05-06T17:24:16;14.40;23.40
21849;DHT22;11089;49.852;19.700;2023-05-06T17:27:17;14.30;27.60
21849;DHT22;11089;49.852;19.700;2023-05-06T17:30:18;14.30;1.00
21849;DHT22;11089;49.852;19.700;2023-05-06T17:33:20;14.20;1.00
21849;DHT22;11089;49.852;19.700;2023-05-06T17:36:22;14.20;1.00
21849;DHT22;11089;49.852;19.700;2023-05-06T17:39:23;14.10;1.00
21849;DHT22;11089;49.852;19.700;2023-05-06T17:42:24;14.00;1.00
21849;DHT22;11089;49.852;19.700;2023-05-06T17:45:27;13.90;1.00
21849;DHT22;11089;49.852;19.700;2023-05-06T17:48:27;13.90;1.00
21849;DHT22;11089;49.852;19.700;2023-05-06T17:51:28;13.80;1.00
21849;DHT22;11089;49.852;19.700;2023-05-06T17:54:30;13.80;1.00
21849;DHT22;11089;49.852;19.700;2023-05-06T17:57:34;13.70;1.00
21849;DHT22;11089;49.852;19.700;2023-05-06T18:00:35;13.60;1.00
21849;DHT22;11089;49.852;19.700;2023-05-06T18:03:38;13.60;13.50
21849;DHT22;11089;49.852;19.700;2023-05-06T18:06:40;13.50;1.00
21849;DHT22;11089;49.852;19.700;2023-05-06T18:09:41;13.50;1.00
21849;DHT22;11089;49.852;19.700;2023-05-06T18:12:44;13.40;1.00
21849;DHT22;11089;49.852;19.700;2023-05-06T18:15:45;13.20;1.00
21849;DHT22;11089;49.852;19.700;2023-05-06T18:18:46;13.30;1.00
21849;DHT22;11089;49.852;19.700;2023-05-06T18:21:47;13.20;1.00
21849;DHT22;11089;49.852;19.700;2023-05-06T18:24:48;13.10;1.00
21849;DHT22;11089;49.852;19.700;2023-05-06T18:27:54;13.10;1.00
21849;DHT22;11089;49.852;19.700;2023-05-06T18:30:55;13.10;1.00
21849;DHT22;11089;49.852;19.700;2023-05-06T18:33:56;13.10;1.00
21849;DHT22;11089;49.852;19.700;2023-05-06T18:36:57;12.90;1.00
21849;DHT22;11089;49.852;19.700;2023-05-06T18:39:58;12.80;99.90
21849;DHT22;11089;49.852;19.700;2023-05-06T18:42:59;12.80;99.90
21849;DHT22;11089;49.852;19.700;2023-05-06T18:46:01;12.80;1.00
21849;DHT22;11089;49.852;19.700;2023-05-06T18:49:02;12.80;1.00
21849;DHT22;11089;49.852;19.700;2023-05-06T18:52:03;12.80;1.00
21849;DHT22;11089;49.852;19.700;2023-05-06T18:55:04;12.80;1.00
21849;DHT22;11089;49.852;19.700;2023-05-06T18:58:06;12.80;1.00
21849;DHT22;11089;49.852;19.700;2023-05-06T19:01:09;12.80;99.90
21849;DHT22;11089;49.852;19.700;2023-05-06T19:04:10;12.70;99.90
21849;DHT22;11089;49.852;19.700;2023-05-06T19:07:11;12.60;99.90
21849;DHT22;11089;49.852;19.700;2023-05-06T19:10:13;12.60;1.00
21849;DHT22;11089;49.852;19.700;2023-05-06T19:13:14;12.50;99.90
21849;DHT22;11089;49.852;19.700;2023-05-06T19:16:15;12.50;1.00
21849;DHT22;11089;49.852;19.700;2023-05-06T19:19:16;12.50;99.90
21849;DHT22;11089;49.852;19.700;2023-05-06T19:22:17;12.50;99.90
21849;DHT22;11089;49.852;19.700;2023-05-06T19:25:18;12.50;99.90